Time;durP1;ratioP1;P1;durP2;ratioP2;P2;SDS_P1;SDS_P2;PMS_P1;PMS_P2;Temp;Humidity;BMP_temperature;BMP_pressure;BME280_temperature;BME280_humidity;BME280_pressure;Samples;Min_cycle;Max_cycle;Signal;HPM_P1;HPM_P2
2021/08/11 00:02:16;;;;;;;16.45;14.75;;;;;;;25.61;100.00;101005.00;4996419;28;20030;-69
2021/08/11 00:05:02;;;;;;;19.27;14.40;;;;;;;25.49;100.00;101007.75;4995144;28;20030;-70
2021/08/11 00:07:49;;;;;;;16.48;14.55;;;;;;;25.45;100.00;101001.75;4995348;28;20468;-69
2021/08/11 00:10:34;;;;;;;18.15;13.82;;;;;;;25.24;100.00;100997.91;4995175;28;20432;-69
2021/08/11 00:13:21;;;;;;;16.63;13.73;;;;;;;25.47;100.00;101004.34;4995867;28;20022;-69
2021/08/11 00:16:07;;;;;;;17.83;14.20;;;;;;;25.63;100.00;101002.22;4995024;28;20030;-69
2021/08/11 00:18:54;;;;;;;21.52;13.45;;;;;;;25.81;100.00;101008.88;4996580;28;20068;-70
2021/08/11 00:21:40;;;;;;;15.00;13.13;;;;;;;25.61;100.00;101006.81;4996255;28;20037;-69
2021/08/11 00:24:26;;;;;;;13.25;11.95;;;;;;;25.80;100.00;101008.00;4968899;28;20030;-69
2021/08/11 00:27:11;;;;;;;14.23;12.75;;;;;;;25.86;100.00;101009.38;4995400;28;20026;-69
2021/08/11 00:29:57;;;;;;;14.63;13.13;;;;;;;25.59;100.00;101015.00;4995813;28;20101;-69
2021/08/11 00:32:43;;;;;;;15.65;14.00;;;;;;;25.75;100.00;101020.06;4994945;28;20034;-70
2021/08/11 00:35:29;;;;;;;16.35;14.05;;;;;;;25.45;100.00;101020.53;4995276;28;20027;-70
2021/08/11 00:38:15;;;;;;;17.20;13.55;;;;;;;25.52;100.00;101018.25;4996079;28;20062;-70
2021/08/11 00:41:00;;;;;;;15.63;13.95;;;;;;;25.19;100.00;101026.06;4994481;28;20391;-70
2021/08/11 00:43:46;;;;;;;14.50;13.00;;;;;;;25.28;100.00;101020.06;4995056;28;20459;-69
2021/08/11 00:46:33;;;;;;;15.25;13.65;;;;;;;25.51;100.00;101016.56;4995087;28;20105;-69
2021/08/11 00:49:19;;;;;;;14.88;13.38;;;;;;;25.42;100.00;101010.03;4981501;28;20037;-69
2021/08/11 00:55:10;;;;;;;14.23;12.45;;;;;;;25.39;100.00;101014.78;4994991;28;20026;-69
2021/08/11 01:01:40;;;;;;;15.20;12.48;;;;;;;25.40;100.00;101009.28;4994442;28;20379;-69
2021/08/11 01:04:26;;;;;;;14.15;12.75;;;;;;;25.38;100.00;101005.00;4995063;28;20033;-69
2021/08/11 01:07:14;;;;;;;14.23;12.38;;;;;;;25.18;100.00;101005.56;4994704;28;20556;-69
2021/08/11 01:10:03;;;;;;;13.07;11.70;;;;;;;25.18;100.00;101008.25;4994795;28;20030;-69
2021/08/11 01:12:49;;;;;;;13.57;12.10;;;;;;;25.33;100.00;101008.03;4994902;28;20034;-70
2021/08/11 01:15:36;;;;;;;13.77;12.20;;;;;;;25.21;100.00;101008.03;4995147;28;20034;-69
2021/08/11 01:18:21;;;;;;;15.00;12.38;;;;;;;25.24;100.00;100997.09;4993959;28;20028;-70
2021/08/11 01:21:16;;;;;;;16.30;12.43;;;;;;;25.45;100.00;100993.72;4995178;28;20037;-70
2021/08/11 01:24:08;;;;;;;14.90;11.85;;;;;;;25.38;100.00;100996.94;4994487;28;20041;-70
2021/08/11 01:27:21;;;;;;;16.15;12.30;;;;;;;25.34;100.00;100998.13;4994580;28;20037;-70
2021/08/11 01:30:20;;;;;;;13.63;11.23;;;;;;;25.45;100.00;100993.72;4993773;28;20053;-70
2021/08/11 01:33:38;;;;;;;15.10;11.55;;;;;;;25.41;100.00;100986.84;4994927;28;20030;-72
2021/08/11 01:36:46;;;;;;;16.80;11.38;;;;;;;25.69;100.00;100982.94;4993637;28;20037;-72
2021/08/11 01:39:36;;;;;;;11.70;10.48;;;;;;;25.68;100.00;100978.56;4994098;28;20026;-72
2021/08/11 01:42:30;;;;;;;12.55;10.50;;;;;;;25.61;100.00;100975.50;4994466;28;20034;-72
2021/08/11 01:45:21;;;;;;;13.65;10.50;;;;;;;25.88;100.00;100975.22;4994414;28;20041;-72
2021/08/11 01:48:17;;;;;;;10.80;9.68;;;;;;;25.53;100.00;100974.34;4994296;28;20100;-72
2021/08/11 01:51:07;;;;;;;11.30;9.05;;;;;;;25.70;100.00;100968.56;4995759;28;20038;-72
2021/08/11 02:06:24;;;;;;;9.40;7.97;;;;;;;25.55;100.00;100970.56;5912129;23;20024;31
2021/08/11 02:09:12;;;;;;;12.45;8.07;;;;;;;25.56;100.00;100972.28;4868728;29;20005;-72
2021/08/11 02:11:57;;;;;;;16.80;7.68;;;;;;;25.48;100.00;100971.16;4869135;29;20165;-72
2021/08/11 02:14:43;;;;;;;9.98;6.85;;;;;;;25.53;100.00;100971.66;4865469;29;20029;-72
2021/08/11 02:17:29;;;;;;;8.23;7.00;;;;;;;25.82;100.00;100962.25;4846983;29;20033;-72
2021/08/11 02:20:15;;;;;;;9.60;6.80;;;;;;;25.60;100.00;100964.88;4846661;29;20092;-72
2021/08/11 02:23:01;;;;;;;9.63;7.05;;;;;;;25.64;100.00;100963.66;4846082;29;20459;-72
2021/08/11 02:25:55;;;;;;;13.70;6.80;;;;;;;25.60;100.00;100956.81;4846688;29;20034;-71
2021/08/11 02:28:46;;;;;;;9.52;6.82;;;;;;;25.47;100.00;100967.59;4833102;29;20101;-71
2021/08/11 02:31:46;;;;;;;8.23;6.55;;;;;;;25.67;100.00;100958.03;4846584;29;20044;-71
2021/08/11 02:34:43;;;;;;;9.63;7.70;;;;;;;25.46;100.00;100967.72;4845582;29;20034;-71
2021/08/11 02:51:30;;;;;;;11.63;8.55;;;;;;;25.08;100.00;100961.63;5660168;23;20383;-71
2021/08/11 02:54:19;;;;;;;12.05;8.70;;;;;;;25.07;100.00;100970.66;4888137;29;20048;-72
2021/08/11 02:57:06;;;;;;;12.50;8.63;;;;;;;25.12;100.00;100971.16;4885652;29;20056;-71
2021/08/11 02:59:52;;;;;;;12.02;8.55;;;;;;;25.44;100.00;100965.16;4883464;29;20454;-71
2021/08/11 03:02:39;;;;;;;13.27;8.82;;;;;;;25.02;100.00;100962.06;4882863;29;20033;-72
2021/08/11 03:05:25;;;;;;;11.38;8.80;;;;;;;25.02;100.00;100960.25;4884055;29;20032;-71
2021/08/11 03:08:12;;;;;;;11.43;8.63;;;;;;;25.06;100.00;100966.22;4882254;29;20021;-72
2021/08/11 03:10:57;;;;;;;11.85;9.70;;;;;;;24.79;100.00;100979.00;4882757;29;20475;-72
2021/08/11 03:13:44;;;;;;;13.75;9.02;;;;;;;24.88;100.00;100983.69;4882651;29;20128;-71
2021/08/11 03:16:30;;;;;;;11.73;9.15;;;;;;;25.25;100.00;100978.19;4884163;29;20032;-71
2021/08/11 03:19:16;;;;;;;11.27;9.88;;;;;;;25.05;100.00;100985.97;4884063;29;20040;-72
2021/08/11 03:22:03;;;;;;;12.52;9.90;;;;;;;25.03;100.00;100980.72;4869302;29;20040;-72
2021/08/11 03:24:51;;;;;;;13.45;9.23;;;;;;;25.11;100.00;100986.38;4883885;29;20370;-72
2021/08/11 03:27:37;;;;;;;13.73;9.82;;;;;;;25.15;100.00;100984.34;4868892;29;20498;-72
2021/08/11 03:30:22;;;;;;;15.45;10.65;;;;;;;25.10;100.00;100998.09;4882004;29;20076;-71
2021/08/11 03:33:08;;;;;;;11.57;10.38;;;;;;;24.94;100.00;101002.84;4883137;29;20104;-72
2021/08/11 03:35:54;;;;;;;17.52;11.35;;;;;;;24.76;100.00;101006.88;4881706;29;20158;-72
2021/08/11 03:38:39;;;;;;;12.88;10.70;;;;;;;24.85;100.00;101006.19;4882457;29;20033;-71
2021/08/11 03:41:25;;;;;;;16.35;11.60;;;;;;;25.19;100.00;101005.47;4881892;29;20076;-71
2021/08/11 03:44:11;;;;;;;13.85;10.73;;;;;;;25.18;100.00;101010.94;4883025;29;20021;-72
2021/08/11 03:46:57;;;;;;;14.32;11.60;;;;;;;25.11;100.00;101010.53;4883022;29;20384;-73
2021/08/11 03:49:45;;;;;;;13.13;10.95;;;;;;;25.03;100.00;101022.78;4881994;29;20032;-72
2021/08/11 04:03:53;;;;;;;13.40;11.68;;;;;;;24.63;100.00;101027.44;4862178;29;20046;-71
2021/08/11 04:06:39;;;;;;;12.95;11.40;;;;;;;24.79;100.00;101022.72;4875714;29;20033;-72
2021/08/11 04:09:25;;;;;;;15.57;11.70;;;;;;;25.14;100.00;101020.16;4882680;29;20055;-72
2021/08/11 04:12:10;;;;;;;13.98;11.93;;;;;;;24.78;100.00;101021.00;4867759;29;20029;-70
2021/08/11 04:14:56;;;;;;;16.25;11.45;;;;;;;25.01;100.00;101027.38;4881494;29;20424;-70
2021/08/11 04:17:42;;;;;;;17.85;11.63;;;;;;;24.83;100.00;101034.94;4880673;29;20029;-70
2021/08/11 04:20:28;;;;;;;12.68;11.23;;;;;;;25.00;100.00;101034.56;4867926;29;20120;-70
2021/08/11 04:23:14;;;;;;;15.85;11.25;;;;;;;25.45;100.00;101031.28;4867633;29;20025;-70
2021/08/11 04:25:59;;;;;;;13.77;10.65;;;;;;;25.30;100.00;101031.53;4880806;29;20033;-70
2021/08/11 04:28:45;;;;;;;15.40;10.65;;;;;;;25.74;100.00;101037.13;4867878;29;20115;-70
2021/08/11 04:31:31;;;;;;;15.85;10.60;;;;;;;26.14;100.00;101046.59;4880701;29;20043;-70
2021/08/11 04:34:49;;;;;;;17.55;10.80;;;;;;;25.60;100.00;101048.06;4880523;29;20497;-72
2021/08/11 04:37:39;;;;;;;15.05;10.50;;;;;;;25.95;100.00;101048.97;4880536;29;20057;-72
2021/08/11 04:40:28;;;;;;;11.45;10.25;;;;;;;25.81;100.00;101057.19;4880393;29;20029;-72
2021/08/11 04:43:14;;;;;;;18.65;10.60;;;;;;;25.74;100.00;101056.81;4881273;29;20056;-72
2021/08/11 04:45:59;;;;;;;15.32;10.20;;;;;;;25.81;100.00;101057.19;4880815;29;20119;-72
2021/08/11 04:48:45;;;;;;;14.35;11.57;;;;;;;25.34;100.00;101059.84;4880120;29;20025;-72
2021/08/11 04:51:31;;;;;;;13.98;11.35;;;;;;;25.54;100.00;101060.09;4881125;29;20419;-72
2021/08/11 04:54:17;;;;;;;14.25;11.48;;;;;;;24.70;100.00;101063.56;4880389;29;20036;-71
2021/08/11 04:57:04;;;;;;;18.17;11.60;;;;;;;25.22;100.00;101060.69;4880177;29;20363;-71
2021/08/11 04:59:50;;;;;;;17.20;11.90;;;;;;;25.02;100.00;101078.22;4880101;29;20029;-71
2021/08/11 05:02:37;;;;;;;13.60;12.10;;;;;;;24.99;100.00;101080.28;4880249;29;20072;-72
2021/08/11 05:05:23;;;;;;;22.17;12.25;;;;;;;25.68;100.00;101073.34;4881096;29;20129;-72
2021/08/11 05:08:09;;;;;;;15.48;12.65;;;;;;;25.88;100.00;101071.88;4881010;29;20489;-72
2021/08/11 05:10:55;;;;;;;14.30;12.15;;;;;;;25.65;100.00;101067.38;4866644;29;20033;-72
2021/08/11 05:13:41;;;;;;;17.77;13.73;;;;;;;25.64;100.00;101065.66;4867087;29;20056;-72
2021/08/11 05:20:22;;;;;;;23.05;14.30;;;;;;;25.95;100.00;101067.78;4880361;29;20101;-71
2021/08/11 05:23:07;;;;;;;18.83;13.88;;;;;;;26.22;100.00;101077.31;4879911;29;20072;-72
2021/08/11 05:25:53;;;;;;;19.45;14.05;;;;;;;26.22;100.00;101079.97;4879708;29;20033;-72
2021/08/11 05:28:39;;;;;;;27.23;20.00;;;;;;;25.83;100.00;101082.94;4880338;29;20382;-72
2021/08/11 05:31:25;;;;;;;22.65;18.02;;;;;;;25.84;100.00;101078.44;4879924;29;20040;-72
2021/08/11 05:34:10;;;;;;;18.98;14.85;;;;;;;26.15;100.00;101081.41;4879584;29;20029;-72
2021/08/11 05:36:56;;;;;;;17.33;11.93;;;;;;;26.06;100.00;101084.81;4879755;29;20028;-72
2021/08/11 05:39:42;;;;;;;15.73;11.20;;;;;;;26.41;100.00;101087.50;4879766;29;20032;-72
2021/08/11 05:43:08;;;;;;;13.60;11.70;;;;;;;26.68;100.00;101085.38;4880490;29;20025;-72
2021/08/11 05:45:54;;;;;;;13.68;11.02;;;;;;;26.86;100.00;101090.19;4880314;29;20025;-72
2021/08/11 05:48:40;;;;;;;14.55;10.82;;;;;;;26.87;100.00;101082.94;4879495;29;20052;-72
2021/08/11 05:51:25;;;;;;;15.70;10.77;;;;;;;27.01;100.00;101088.09;4866368;29;20080;-72
2021/08/11 05:54:11;;;;;;;16.77;10.02;;;;;;;27.61;100.00;101085.88;4879530;29;20039;-72
2021/08/11 05:57:01;;;;;;;12.23;10.40;;;;;;;27.62;100.00;101089.41;4880433;29;20415;-72
2021/08/11 05:59:48;;;;;;;15.32;10.27;;;;;;;27.45;100.00;101083.56;4879492;29;20033;-72
2021/08/11 06:02:34;;;;;;;17.60;11.60;;;;;;;26.85;100.00;101087.59;4880260;29;20104;-72
2021/08/11 06:05:20;;;;;;;14.45;11.18;;;;;;;27.03;100.00;101083.44;4879901;29;20033;-73
2021/08/11 06:08:06;;;;;;;15.23;10.98;;;;;;;27.09;100.00;101088.34;4880316;29;20064;-71
2021/08/11 06:10:51;;;;;;;15.38;10.75;;;;;;;27.21;100.00;101087.41;4880314;29;20035;-72
2021/08/11 06:13:37;;;;;;;13.45;11.27;;;;;;;27.00;100.00;101092.63;4880266;29;20028;-72
2021/08/11 06:16:23;;;;;;;11.55;10.27;;;;;;;27.57;100.00;101087.09;4880056;29;20112;-72
2021/08/11 06:19:09;;;;;;;14.50;10.23;;;;;;;27.75;100.00;101090.97;4879796;29;20351;-72
2021/08/11 06:21:55;;;;;;;11.85;10.10;;;;;;;27.29;100.00;101087.63;4866859;29;20426;-71
2021/08/11 06:24:41;;;;;;;14.57;10.27;;;;;;;27.66;100.00;101096.25;4880244;29;20025;-72
2021/08/11 06:27:27;;;;;;;13.02;9.38;;;;;;;27.51;100.00;101100.22;4879543;29;20185;-72
2021/08/11 06:30:13;;;;;;;13.80;8.95;;;;;;;27.62;100.00;101089.41;4880624;29;20025;-72
2021/08/11 06:32:59;;;;;;;20.35;9.82;;;;;;;28.07;100.00;101093.69;4879970;29;20037;-72
2021/08/11 06:35:44;;;;;;;12.32;9.68;;;;;;;28.08;100.00;101090.88;4879546;29;20505;-72
2021/08/11 06:38:30;;;;;;;11.30;10.13;;;;;;;28.18;100.00;101097.22;4880173;29;20037;-71
2021/08/11 06:41:16;;;;;;;11.70;7.50;;;;;;;27.87;100.00;101092.66;4879455;29;20036;-71
2021/08/11 06:44:02;;;;;;;9.90;7.10;;;;;;;27.92;100.00;101093.13;4880162;29;20037;-72
2021/08/11 06:46:48;;;;;;;7.53;6.18;;;;;;;28.07;100.00;101091.84;4882746;29;20417;-72
2021/08/11 06:49:33;;;;;;;9.88;6.30;;;;;;;28.11;100.00;101090.63;4883064;29;20040;-72
2021/08/11 06:52:19;;;;;;;8.60;6.00;;;;;;;28.52;100.00;101100.63;4883111;29;20091;-72
2021/08/11 09:52:58;;;;;;;8.17;6.30;;;;;;;33.77;77.95;101040.47;5881441;23;20063;-71
2021/08/11 10:00:54;;;;;;;7.47;5.80;;;;;;;33.85;78.65;101036.91;5585457;23;20108;-74
2021/08/11 10:04:00;;;;;;;9.77;5.68;;;;;;;33.90;75.48;101029.97;4886615;29;20088;-72
2021/08/11 10:06:47;;;;;;;9.00;5.38;;;;;;;34.27;74.78;101033.00;4871344;29;20033;-71
2021/08/11 10:09:32;;;;;;;9.15;5.90;;;;;;;33.44;77.44;101026.97;4882647;29;20025;-70
2021/08/11 10:12:42;;;;;;;;;;;;;;;;;;;;;
2021/08/11 11:34:20;;;;;;;9.18;6.03;;;;;;;34.82;59.83;100968.66;5421319;23;20103;-73
2021/08/11 11:37:06;;;;;;;6.78;6.10;;;;;;;34.47;60.80;100962.78;4870649;29;20049;-73
2021/08/11 11:39:51;;;;;;;7.50;6.28;;;;;;;34.40;61.28;100964.50;4884501;29;20040;-71
2021/08/11 11:42:37;;;;;;;7.50;6.05;;;;;;;34.00;62.03;100953.66;4882462;29;20463;-71
2021/08/11 11:45:42;;;;;;;6.90;6.20;;;;;;;33.46;65.34;100948.81;4882885;29;20467;-71
2021/08/11 11:48:28;;;;;;;7.40;6.00;;;;;;;34.16;61.92;100951.75;4883643;29;20036;-71
2021/08/11 11:51:14;;;;;;;9.80;6.22;;;;;;;34.53;61.43;100946.59;4883680;29;20139;-71
2021/08/11 11:54:04;;;;;;;8.80;6.45;;;;;;;34.52;60.99;100953.06;4881777;29;20029;-71
2021/08/11 11:56:50;;;;;;;11.30;6.72;;;;;;;33.87;63.45;100937.00;4868709;29;20084;-71
2021/08/11 11:59:43;;;;;;;8.63;6.20;;;;;;;34.45;62.06;100937.59;4883424;29;20116;-71
2021/08/11 12:02:29;;;;;;;8.15;6.40;;;;;;;34.38;60.72;100931.16;4883512;29;20426;-72
2021/08/11 12:05:15;;;;;;;9.48;6.00;;;;;;;33.37;64.33;100926.25;4883673;29;20037;-71
2021/08/11 12:08:09;;;;;;;9.05;6.40;;;;;;;33.83;63.06;100922.88;4883022;29;20037;-71
2021/08/11 12:11:10;;;;;;;18.08;11.82;;;;;;;34.64;60.83;100923.59;4883426;29;20458;-71
2021/08/11 12:13:55;;;;;;;13.75;6.30;;;;;;;34.57;60.73;100922.59;4885667;29;20200;-74
2021/08/11 12:16:42;;;;;;;6.38;5.78;;;;;;;34.42;60.94;100918.91;5144215;23;20139;-70
2021/08/11 12:26:39;;;;;;;8.07;5.82;;;;;;;34.57;59.25;100904.41;5377796;23;20064;-71
2021/08/11 12:29:27;;;;;;;6.70;6.03;;;;;;;34.22;60.02;100907.53;4886616;29;20051;-72
2021/08/11 12:32:13;;;;;;;10.57;5.90;;;;;;;34.93;58.26;100896.59;4891207;29;20104;-71
2021/08/11 12:34:59;;;;;;;8.60;5.80;;;;;;;35.12;57.13;100896.97;4887440;29;20416;-74
2021/08/11 12:37:48;;;;;;;9.38;5.88;;;;;;;34.40;56.63;100899.19;4868179;29;20033;-71
2021/08/11 12:40:36;;;;;;;8.77;6.05;;;;;;;34.79;57.30;100884.53;4868565;29;20033;-74
2021/08/11 12:43:34;;;;;;;10.80;5.78;;;;;;;34.77;55.18;100891.19;4855478;29;20044;-71
2021/08/11 12:46:38;;;;;;;8.23;6.05;;;;;;;34.24;56.97;100886.44;4882988;29;20037;-70
2021/08/11 12:49:31;;;;;;;8.85;5.72;;;;;;;34.44;57.17;100889.66;4882384;29;20029;-70
2021/08/11 12:52:22;;;;;;;10.68;6.38;;;;;;;35.00;55.79;100887.53;4882857;29;20037;-70
2021/08/11 12:55:09;;;;;;;10.57;5.72;;;;;;;34.65;53.34;100884.44;4881093;29;20067;-70
2021/08/11 12:57:54;;;;;;;8.43;5.47;;;;;;;34.77;54.06;100891.19;4882415;29;20037;-70
2021/08/11 13:00:44;;;;;;;9.90;6.82;;;;;;;34.98;54.04;100888.72;4881109;29;20036;-73
2021/08/11 13:03:44;;;;;;;8.65;5.45;;;;;;;34.87;51.94;100884.53;4882601;29;20096;-73
2021/08/11 13:06:38;;;;;;;9.13;6.93;;;;;;;35.19;52.25;100883.47;4881907;29;20056;-73
2021/08/11 13:09:31;;;;;;;8.07;6.10;;;;;;;35.64;51.51;100886.25;4867623;29;20025;-73
2021/08/11 13:13:04;;;;;;;8.43;5.55;;;;;;;35.13;48.75;100884.22;4882079;29;20456;-73
2021/08/11 13:16:06;;;;;;;8.55;5.70;;;;;;;35.14;48.47;100884.03;4880283;29;20033;-74
2021/08/11 13:18:52;;;;;;;7.55;5.22;;;;;;;34.74;48.19;100875.22;4868184;29;20029;-72
2021/08/11 13:21:39;;;;;;;8.20;5.68;;;;;;;35.38;47.51;100874.84;4883196;29;20037;-73
2021/08/11 13:24:25;;;;;;;9.45;5.18;;;;;;;35.02;47.35;100871.84;4882123;29;20473;-70
2021/08/11 13:27:11;;;;;;;6.78;5.53;;;;;;;35.02;44.33;100869.13;4881922;29;20113;-70
2021/08/11 13:29:57;;;;;;;6.00;5.15;;;;;;;34.65;44.63;100859.94;4882230;29;20039;-73
2021/08/11 13:32:46;;;;;;;7.25;5.72;;;;;;;35.25;44.68;100858.25;4880781;29;20422;-73
2021/08/11 13:35:33;;;;;;;10.55;6.20;;;;;;;35.09;43.77;100864.66;4881780;29;20112;-73
2021/08/11 13:38:19;;;;;;;6.50;5.70;;;;;;;34.68;44.94;100854.97;4866661;29;20040;-73
2021/08/11 13:41:04;;;;;;;8.40;6.03;;;;;;;35.11;44.05;100859.00;4881776;29;20461;-72
2021/08/11 13:43:50;;;;;;;6.90;5.72;;;;;;;35.40;42.44;100864.63;4880736;29;20037;-74
2021/08/11 13:46:36;;;;;;;7.05;5.75;;;;;;;35.59;42.96;100861.38;5356464;23;20049;-71
2021/08/11 13:49:22;;;;;;;10.30;5.35;;;;;;;35.53;43.33;100856.69;4886728;29;20461;-73
2021/08/11 13:52:08;;;;;;;7.82;5.28;;;;;;;35.22;43.11;100851.28;4887025;29;20123;-73
2021/08/11 13:57:36;;;;;;;10.77;8.02;;;;;;;35.74;43.02;100864.16;5065282;23;20104;-71
2021/08/11 14:00:22;;;;;;;8.57;6.35;;;;;;;35.12;42.00;100847.94;4902348;29;20071;-70
2021/08/11 14:03:08;;;;;;;9.40;6.93;;;;;;;34.96;41.96;100856.22;4904020;29;20323;-73
2021/08/11 14:05:53;;;;;;;7.72;5.82;;;;;;;35.17;41.80;100851.00;4894453;29;20040;-73
2021/08/11 14:08:39;;;;;;;8.57;6.63;;;;;;;35.04;42.14;100847.16;4870535;29;20033;-73
2021/08/11 14:11:25;;;;;;;15.48;7.88;;;;;;;35.45;40.73;100850.44;4885186;29;20458;-73
2021/08/11 14:14:10;;;;;;;8.10;5.75;;;;;;;34.91;41.82;100844.16;4885400;29;20088;-73
2021/08/11 14:16:56;;;;;;;8.15;5.20;;;;;;;34.82;41.83;100839.81;4883528;29;20215;-74
2021/08/11 14:19:42;;;;;;;12.40;5.18;;;;;;;34.86;41.33;100841.13;4883485;29;20040;-74
2021/08/11 14:22:47;;;;;;;9.32;5.40;;;;;;;34.69;40.94;100839.50;4870291;29;20447;-71
2021/08/11 14:25:35;;;;;;;7.28;5.13;;;;;;;34.38;40.43;100835.91;4884947;29;20029;-73
2021/08/11 14:28:21;;;;;;;6.05;4.78;;;;;;;34.47;40.89;100827.53;4885287;29;20021;-72
2021/08/11 14:31:07;;;;;;;9.23;5.50;;;;;;;34.48;41.52;100833.84;4883626;29;20029;-72
2021/08/11 14:33:53;;;;;;;7.15;4.97;;;;;;;34.19;41.36;100830.88;4882808;29;20466;-72
2021/08/11 14:36:39;;;;;;;7.07;5.00;;;;;;;34.35;41.94;100828.13;4884774;29;20377;-73
2021/08/11 14:39:25;;;;;;;7.43;5.35;;;;;;;34.27;42.80;100825.41;4882808;29;20041;-74
2021/08/11 14:42:11;;;;;;;8.20;5.30;;;;;;;34.35;40.86;100820.78;4884062;29;20040;-73
2021/08/11 14:44:56;;;;;;;7.43;5.07;;;;;;;34.39;40.88;100815.84;4884708;29;20057;-73
2021/08/11 14:51:24;;;;;;;7.53;5.20;;;;;;;34.44;40.47;100805.28;4884428;29;20037;-72
2021/08/11 14:54:10;;;;;;;8.48;5.32;;;;;;;34.56;41.47;100801.97;4884462;29;20111;-72
2021/08/11 14:56:56;;;;;;;6.30;5.32;;;;;;;34.09;41.96;100803.88;4884279;29;20060;-72
2021/08/11 14:59:41;;;;;;;9.63;5.30;;;;;;;34.36;39.99;100795.25;4882706;29;20033;-73
2021/08/11 15:02:27;;;;;;;5.70;5.10;;;;;;;33.84;41.16;100798.66;4884662;29;20348;-74
2021/08/11 15:05:13;;;;;;;7.13;5.18;;;;;;;33.97;40.82;100798.97;4883438;29;20147;-73
2021/08/11 15:08:00;;;;;;;7.18;4.63;;;;;;;33.87;40.87;100796.44;4883578;29;20029;-74
2021/08/11 15:10:46;;;;;;;7.63;5.00;;;;;;;34.08;41.04;100801.31;4883950;29;20100;-73
2021/08/11 15:13:32;;;;;;;6.72;5.30;;;;;;;34.33;41.05;100801.09;4882776;29;20067;-73
2021/08/11 15:16:18;;;;;;;5.38;4.82;;;;;;;34.47;40.26;100796.78;4884153;29;20112;-74
2021/08/11 15:19:04;;;;;;;8.80;5.25;;;;;;;34.06;40.68;100806.06;4883100;29;20039;-74
2021/08/11 15:21:50;;;;;;;8.52;5.15;;;;;;;34.41;40.92;100803.78;4884327;29;20105;-73
2021/08/11 15:24:36;;;;;;;8.00;5.40;;;;;;;34.25;40.85;100811.09;4883935;29;20547;-73
2021/08/11 15:27:22;;;;;;;7.80;5.45;;;;;;;34.47;40.90;100807.66;4884899;29;20427;-73
2021/08/11 15:30:08;;;;;;;9.18;5.45;;;;;;;34.01;42.07;100811.19;4884132;29;20017;-74
2021/08/11 15:32:54;;;;;;;9.25;5.47;;;;;;;34.04;40.93;100819.00;4883225;29;20033;-74
2021/08/11 15:35:39;;;;;;;12.32;5.43;;;;;;;33.66;42.20;100819.72;4883131;29;20037;-74
2021/08/11 15:38:25;;;;;;;7.40;5.78;;;;;;;33.80;41.88;100811.75;4882803;29;20029;-73
2021/08/11 15:41:12;;;;;;;12.48;5.63;;;;;;;33.84;42.08;100814.97;4884121;29;20108;-74
2021/08/11 15:43:57;;;;;;;9.77;6.63;;;;;;;34.04;42.13;100813.56;4882357;29;20419;-74
2021/08/11 15:46:44;;;;;;;6.30;5.20;;;;;;;34.20;42.29;100824.41;4883686;29;20096;-74
2021/08/11 15:49:30;;;;;;;8.57;5.60;;;;;;;33.76;41.50;100815.84;4881720;29;20029;-74
2021/08/11 15:52:16;;;;;;;5.80;5.15;;;;;;;33.51;42.18;100819.56;4868384;29;20025;-73
2021/08/11 15:55:04;;;;;;;8.15;5.30;;;;;;;33.68;42.16;100829.44;4883173;29;20036;-73
2021/08/11 15:57:50;;;;;;;7.85;5.68;;;;;;;33.84;42.37;100825.88;4868662;29;20057;-73
2021/08/11 16:00:36;;;;;;;12.27;5.88;;;;;;;34.03;42.56;100820.03;4882194;29;20490;-73
2021/08/11 16:03:21;;;;;;;7.00;5.35;;;;;;;33.61;42.51;100825.69;4883646;29;20033;-72
2021/08/11 16:06:07;;;;;;;11.20;5.60;;;;;;;33.33;42.27;100827.06;4880664;29;20029;-72
2021/08/11 16:08:53;;;;;;;8.00;5.72;;;;;;;33.58;42.39;100826.03;4883212;29;20053;-72
2021/08/11 20:34:53;;;;;;;16.95;7.43;;;;;;;29.09;95.84;101017.31;4900929;29;20123;-73
2021/08/11 20:37:39;;;;;;;13.45;7.35;;;;;;;29.28;92.35;101022.75;4867829;29;20040;-73
2021/08/11 20:40:25;;;;;;;10.93;6.60;;;;;;;29.08;94.80;101032.63;4881808;29;20040;-72
2021/08/11 20:43:11;;;;;;;12.30;7.07;;;;;;;29.04;94.23;101038.44;4880925;29;20121;-73
2021/08/11 20:45:56;;;;;;;10.48;6.88;;;;;;;28.83;95.59;101035.78;4881394;29;20039;-73
2021/08/11 20:48:42;;;;;;;11.18;7.03;;;;;;;28.54;98.60;101039.31;4882178;29;20029;-73
2021/08/11 20:51:28;;;;;;;10.18;6.90;;;;;;;28.76;96.80;101042.69;4882099;29;20093;-73
2021/08/11 20:54:14;;;;;;;11.40;6.40;;;;;;;28.76;96.95;101049.94;4881734;29;20048;-73
2021/08/11 20:57:00;;;;;;;8.10;6.47;;;;;;;28.88;94.64;101055.09;4867328;29;20367;-73
2021/08/11 20:59:45;;;;;;;11.13;6.68;;;;;;;28.96;93.32;101054.41;4880861;29;20048;-72
2021/08/11 21:02:31;;;;;;;10.65;7.00;;;;;;;28.90;93.41;101053.16;4881979;29;20036;-72
2021/08/11 21:05:17;;;;;;;11.32;6.82;;;;;;;28.93;93.94;101052.00;4882155;29;20454;-72
2021/08/11 21:08:06;;;;;;;9.73;6.57;;;;;;;29.03;92.64;101052.94;4881219;29;20036;-72
2021/08/11 21:10:51;;;;;;;13.57;6.80;;;;;;;28.98;92.51;101052.47;4881221;29;20052;-71
2021/08/11 21:13:40;;;;;;;11.48;7.13;;;;;;;29.00;92.66;101059.44;4880920;29;20040;-72
2021/08/11 21:16:26;;;;;;;8.15;6.70;;;;;;;28.73;95.59;101061.84;4881785;29;20028;-72
2021/08/11 21:19:12;;;;;;;10.35;7.53;;;;;;;29.10;92.74;101071.16;4867641;29;20472;-71
2021/08/11 21:21:57;;;;;;;9.75;6.72;;;;;;;29.01;94.13;101077.34;4880772;29;20043;-72
2021/08/11 21:24:43;;;;;;;14.57;9.43;;;;;;;28.55;99.75;101078.75;4881106;29;20036;-73
2021/08/11 21:27:29;;;;;;;9.38;7.57;;;;;;;28.94;98.85;101083.41;4868338;29;20029;-73
2021/08/11 21:30:15;;;;;;;9.30;6.38;;;;;;;28.59;100.00;101088.31;4881670;29;20053;-73
2021/08/11 21:33:00;;;;;;;8.95;6.68;;;;;;;28.83;100.00;101092.44;4881839;29;20116;-72
2021/08/11 21:35:46;;;;;;;9.73;6.90;;;;;;;28.64;100.00;101086.91;4880441;29;20112;-72
2021/08/11 21:38:32;;;;;;;10.07;6.82;;;;;;;28.47;100.00;101092.03;4881264;29;20021;-72
2021/08/11 21:41:18;;;;;;;8.20;7.00;;;;;;;28.68;100.00;101099.16;4886493;29;20029;-73
2021/08/11 21:44:04;;;;;;;8.52;6.45;;;;;;;28.80;100.00;101100.78;4887456;29;20033;-73
2021/08/11 21:46:49;;;;;;;11.68;6.63;;;;;;;27.86;100.00;101101.75;4884463;29;20461;-73
2021/08/11 21:49:35;;;;;;;8.32;6.40;;;;;;;27.53;100.00;101101.78;4882176;29;20435;-73
2021/08/11 21:52:21;;;;;;;8.77;6.35;;;;;;;27.66;100.00;101101.63;4881620;29;20037;-73
2021/08/11 21:55:08;;;;;;;8.07;6.53;;;;;;;28.19;100.00;101108.81;4880940;29;20036;-73
2021/08/11 21:57:54;;;;;;;10.18;6.90;;;;;;;27.92;100.00;101103.06;4881916;29;20032;-73
2021/08/11 22:00:40;;;;;;;7.78;6.75;;;;;;;27.77;100.00;101110.56;4879707;29;20128;-73
2021/08/11 22:03:26;;;;;;;9.73;7.03;;;;;;;27.82;100.00;101116.44;4867290;29;20033;-73
2021/08/11 22:06:18;;;;;;;9.35;6.95;;;;;;;28.07;100.00;101115.25;4881069;29;20444;-73
2021/08/11 22:09:04;;;;;;;9.15;7.03;;;;;;;27.74;100.00;101115.31;4880232;29;20077;-72
2021/08/11 22:11:50;;;;;;;8.02;7.00;;;;;;;27.73;100.00;101119.88;4867165;29;20037;-72
2021/08/11 22:14:37;;;;;;;10.57;7.50;;;;;;;27.79;100.00;101116.66;4867519;29;20024;-73
2021/08/11 22:21:05;;;;;;;13.77;7.30;;;;;;;27.51;100.00;101097.53;5128567;23;20034;-73
2021/08/11 22:23:51;;;;;;;8.00;6.47;;;;;;;27.62;100.00;101090.25;4889780;29;20052;-72
2021/08/11 22:26:37;;;;;;;9.23;6.72;;;;;;;27.55;100.00;101094.44;4875623;29;20029;-73
2021/08/11 22:29:23;;;;;;;10.27;6.82;;;;;;;27.48;100.00;101101.28;4885054;29;20025;-73
2021/08/11 22:32:09;;;;;;;9.57;7.32;;;;;;;27.43;100.00;101101.69;4884751;29;20108;-72
2021/08/11 22:34:54;;;;;;;10.38;8.27;;;;;;;27.07;100.00;101106.44;4885255;29;20043;-72
2021/08/11 22:37:40;;;;;;;9.98;8.00;;;;;;;27.21;100.00;101106.22;4882474;29;20076;-72
2021/08/11 22:40:26;;;;;;;10.75;8.20;;;;;;;27.33;100.00;101107.94;4884994;29;20025;-72